Time;durP1;ratioP1;P1;durP2;ratioP2;P2;SDS_P1;SDS_P2;PMS_P1;PMS_P2;Temp;Humidity;BMP_temperature;BMP_pressure;BME280_temperature;BME280_humidity;BME280_pressure;Samples;Min_cycle;Max_cycle;Signal;HPM_P1;HPM_P2
2022/01/03 00:00:12;;;;;;;4.70;3.88;;;;;;;;;;5059801;28;20434;-61
2022/01/03 00:02:38;;;;;;;5.40;3.75;;;;;;;;;;5059650;28;20131;-61
2022/01/03 00:05:03;;;;;;;7.53;4.88;;;;;;;;;;5058141;28;20021;-60
2022/01/03 00:07:29;;;;;;;7.85;4.68;;;;;;;;;;5058468;28;20028;-61
2022/01/03 00:09:57;;;;;;;6.65;4.03;;;;;;;;;;5059888;28;20051;-61
2022/01/03 00:12:23;;;;;;;3.85;3.35;;;;;;;;;;5087976;28;20049;-68
2022/01/03 00:14:49;;;;;;;7.47;4.93;;;;;;;;;;5060350;28;20384;-61
2022/01/03 00:17:15;;;;;;;6.68;4.65;;;;;;;;;;5057084;28;20035;-62
2022/01/03 00:19:40;;;;;;;6.70;4.78;;;;;;;;;;5056144;28;20040;-62
2022/01/03 00:22:07;;;;;;;7.20;4.03;;;;;;;;;;5056022;28;20113;-61
2022/01/03 00:24:33;;;;;;;6.10;4.45;;;;;;;;;;5056157;28;20040;-61
2022/01/03 00:27:10;;;;;;;6.32;4.22;;;;;;;;;;5055831;28;20017;-62
2022/01/03 00:29:46;;;;;;;6.28;4.50;;;;;;;;;;5054795;28;20044;-61
2022/01/03 00:32:13;;;;;;;6.25;4.65;;;;;;;;;;5055915;28;20388;-62
2022/01/03 00:34:39;;;;;;;5.95;4.38;;;;;;;;;;5054512;28;20032;-61
2022/01/03 00:37:05;;;;;;;6.07;4.50;;;;;;;;;;5055811;28;20415;-62
2022/01/03 00:39:31;;;;;;;5.75;4.07;;;;;;;;;;5055995;28;20031;-61
2022/01/03 00:41:58;;;;;;;6.68;4.88;;;;;;;;;;5053903;28;20037;-61
2022/01/03 00:44:24;;;;;;;6.70;4.65;;;;;;;;;;5055618;28;20032;-61
2022/01/03 00:46:51;;;;;;;5.70;4.20;;;;;;;;;;5055800;28;20041;-61
2022/01/03 00:49:16;;;;;;;7.18;4.40;;;;;;;;;;5055595;28;20036;-62
2022/01/03 00:51:42;;;;;;;6.55;4.35;;;;;;;;;;5054285;28;20029;-62
2022/01/03 00:54:07;;;;;;;6.03;4.65;;;;;;;;;;5055823;28;20021;-69
2022/01/03 00:56:37;;;;;;;6.03;4.63;;;;;;;;;;5055637;28;20506;-69
2022/01/03 00:59:07;;;;;;;6.03;4.27;;;;;;;;;;5054450;28;20028;-69
2022/01/03 01:01:38;;;;;;;7.68;4.70;;;;;;;;;;5054195;28;20275;-68
2022/01/03 01:04:06;;;;;;;6.20;4.15;;;;;;;;;;5054204;28;20025;-69
2022/01/03 01:06:33;;;;;;;6.90;4.13;;;;;;;;;;5054134;28;20032;-68
2022/01/03 01:09:00;;;;;;;6.65;4.07;;;;;;;;;;5054334;28;20112;-68
2022/01/03 01:11:29;;;;;;;5.88;4.05;;;;;;;;;;5053921;28;20041;-69
2022/01/03 01:13:56;;;;;;;5.38;3.72;;;;;;;;;;5053534;28;20045;-68
2022/01/03 01:16:22;;;;;;;5.63;4.07;;;;;;;;;;5053825;28;20060;-68
2022/01/03 01:18:50;;;;;;;5.80;4.32;;;;;;;;;;5053854;28;20068;-68
2022/01/03 01:21:17;;;;;;;5.43;4.00;;;;;;;;;;5053753;28;20032;-68
2022/01/03 01:23:43;;;;;;;5.85;4.05;;;;;;;;;;5053648;28;20052;-69
2022/01/03 01:28:54;;;;;;;7.57;4.35;;;;;;;;;;5053890;28;20053;-69
2022/01/03 01:31:20;;;;;;;5.35;4.25;;;;;;;;;;5054749;28;20067;-69
2022/01/03 01:33:50;;;;;;;4.90;3.80;;;;;;;;;;5053318;28;20071;-69
2022/01/03 01:36:16;;;;;;;4.57;4.10;;;;;;;;;;5053358;28;20407;-61
2022/01/03 01:38:44;;;;;;;5.25;4.15;;;;;;;;;;5053294;28;20036;-61
2022/01/03 01:41:11;;;;;;;5.68;4.15;;;;;;;;;;5053474;28;20020;-61
2022/01/03 01:43:48;;;;;;;4.85;4.13;;;;;;;;;;5053256;28;20090;-61
2022/01/03 01:46:21;;;;;;;4.20;3.77;;;;;;;;;;5053359;28;20086;-61
2022/01/03 01:48:51;;;;;;;5.63;3.88;;;;;;;;;;5053317;28;20024;-61
2022/01/03 01:51:20;;;;;;;4.93;4.00;;;;;;;;;;5053329;28;20025;-61
2022/01/03 01:53:50;;;;;;;5.22;3.95;;;;;;;;;;5053471;28;20166;-61
2022/01/03 01:56:24;;;;;;;4.05;3.70;;;;;;;;;;5053086;28;20106;-61
2022/01/03 01:58:50;;;;;;;;;;;;;;;;;;5053349;28;20039;-61
2022/01/03 02:01:15;;;;;;;4.27;3.87;;;;;;;;;;5054258;28;20267;-60
2022/01/03 02:03:57;;;;;;;3.50;3.17;;;;;;;;;;5052831;28;20777;-60
2022/01/03 02:06:43;;;;;;;4.55;3.33;;;;;;;;;;5052962;28;20025;-61
2022/01/03 02:09:15;;;;;;;4.20;3.22;;;;;;;;;;5052823;28;20029;-61
2022/01/03 02:11:49;;;;;;;4.55;3.92;;;;;;;;;;5054264;28;20543;-61
2022/01/03 02:14:15;;;;;;;4.05;3.63;;;;;;;;;;5053817;28;20427;-61
2022/01/03 02:16:41;;;;;;;3.50;3.17;;;;;;;;;;5053897;28;20033;-61
2022/01/03 02:19:07;;;;;;;3.45;3.15;;;;;;;;;;5052624;28;20112;-61
2022/01/03 02:21:33;;;;;;;5.05;3.83;;;;;;;;;;5052682;28;20442;-61
2022/01/03 02:23:58;;;;;;;3.03;2.75;;;;;;;;;;5052427;28;20392;-61
2022/01/03 02:26:29;;;;;;;3.72;3.42;;;;;;;;;;5052667;28;20051;-68
2022/01/03 02:28:55;;;;;;;;;;;;;;;;;;5052954;28;20025;-69
2022/01/03 02:31:22;;;;;;;4.15;2.72;;;;;;;;;;5036109;28;20394;-68
2022/01/03 02:33:48;;;;;;;5.13;3.53;;;;;;;;;;5052324;28;20025;-69
2022/01/03 02:36:15;;;;;;;5.57;3.70;;;;;;;;;;5053669;28;20071;-69
2022/01/03 02:38:41;;;;;;;5.50;4.03;;;;;;;;;;5052339;28;20029;-69
2022/01/03 02:41:07;;;;;;;4.53;3.35;;;;;;;;;;5051796;28;20119;-69
2022/01/03 02:43:32;;;;;;;3.55;3.25;;;;;;;;;;5053395;28;20120;-68
2022/01/03 02:45:59;;;;;;;5.25;3.75;;;;;;;;;;5052123;28;20017;-69
2022/01/03 02:48:26;;;;;;;3.38;2.95;;;;;;;;;;5052196;28;20079;-69
2022/01/03 02:50:53;;;;;;;4.70;3.50;;;;;;;;;;5052104;28;20024;-69
2022/01/03 02:53:19;;;;;;;4.75;4.00;;;;;;;;;;5052450;28;20028;-69
2022/01/03 02:55:45;;;;;;;5.25;3.42;;;;;;;;;;5053496;28;20017;-69
2022/01/03 02:58:10;;;;;;;4.53;3.75;;;;;;;;;;5052063;28;20036;-68
2022/01/03 03:00:45;;;;;;;5.07;3.95;;;;;;;;;;5052173;28;20493;-68
2022/01/03 03:03:13;;;;;;;4.53;3.92;;;;;;;;;;5052113;28;20363;-69
2022/01/03 03:05:39;;;;;;;5.78;3.90;;;;;;;;;;5052128;28;20088;-69
2022/01/03 03:08:04;;;;;;;4.88;3.92;;;;;;;;;;5045300;28;20075;-70
2022/01/03 03:10:30;;;;;;;4.22;3.83;;;;;;;;;;5031851;28;20498;-69
2022/01/03 03:12:58;;;;;;;5.80;3.95;;;;;;;;;;5031517;28;20057;-68
2022/01/03 03:15:27;;;;;;;4.65;3.92;;;;;;;;;;5032093;28;20025;-69
2022/01/03 03:17:53;;;;;;;5.70;4.03;;;;;;;;;;5033215;28;20454;-69
2022/01/03 03:20:23;;;;;;;6.68;3.92;;;;;;;;;;5033014;28;20025;-69
2022/01/03 03:22:50;;;;;;;5.00;4.07;;;;;;;;;;5015422;28;20108;-69
2022/01/03 03:25:18;;;;;;;6.85;4.00;;;;;;;;;;5015603;28;20480;-69
2022/01/03 03:27:47;;;;;;;7.13;4.38;;;;;;;;;;5015704;28;20083;-69
2022/01/03 03:30:16;;;;;;;4.07;3.25;;;;;;;;;;5031960;28;20024;-69
2022/01/03 03:32:42;;;;;;;6.43;4.30;;;;;;;;;;5031806;28;20029;-69
2022/01/03 03:35:08;;;;;;;5.03;3.40;;;;;;;;;;5031748;28;20025;-69
2022/01/03 03:37:34;;;;;;;5.45;3.97;;;;;;;;;;5031867;28;20112;-69
2022/01/03 03:39:59;;;;;;;3.90;3.13;;;;;;;;;;5033117;28;20025;-68
2022/01/03 03:42:25;;;;;;;5.25;3.70;;;;;;;;;;5032990;28;20037;-68
2022/01/03 03:44:52;;;;;;;5.88;3.83;;;;;;;;;;5031692;28;20065;-68
2022/01/03 03:47:17;;;;;;;4.15;3.50;;;;;;;;;;5032014;28;20053;-68
2022/01/03 03:49:43;;;;;;;5.20;3.80;;;;;;;;;;5031746;28;20024;-68
2022/01/03 03:52:10;;;;;;;5.88;4.05;;;;;;;;;;5032568;28;20033;-68
2022/01/03 03:54:36;;;;;;;5.47;3.72;;;;;;;;;;5035559;28;20066;-68
2022/01/03 03:57:03;;;;;;;4.60;3.88;;;;;;;;;;5036532;28;20124;-68
2022/01/03 03:59:29;;;;;;;6.78;4.45;;;;;;;;;;5035347;28;20371;-69
2022/01/03 04:01:55;;;;;;;5.72;3.97;;;;;;;;;;5035405;28;20032;-67
2022/01/03 04:04:21;;;;;;;4.75;3.88;;;;;;;;;;5019041;28;20115;-68
2022/01/03 04:06:48;;;;;;;4.70;3.58;;;;;;;;;;5035249;28;20029;-69
2022/01/03 04:09:14;;;;;;;6.55;4.40;;;;;;;;;;5035002;28;20498;-68
2022/01/03 04:11:41;;;;;;;5.93;3.78;;;;;;;;;;5035230;28;20030;-68
2022/01/03 04:14:07;;;;;;;5.72;3.88;;;;;;;;;;5034689;28;20049;-68
2022/01/03 04:16:33;;;;;;;5.75;4.00;;;;;;;;;;5034964;28;20037;-69
2022/01/03 04:19:00;;;;;;;5.10;3.70;;;;;;;;;;5036111;28;20026;-68
2022/01/03 04:21:26;;;;;;;5.18;3.65;;;;;;;;;;5034923;28;20250;-68
2022/01/03 04:23:51;;;;;;;5.05;3.85;;;;;;;;;;5034730;28;20427;-69
2022/01/03 04:26:17;;;;;;;5.18;3.78;;;;;;;;;;5034746;28;20030;-69
2022/01/03 04:28:42;;;;;;;4.50;3.63;;;;;;;;;;5036019;28;20079;-69
2022/01/03 04:31:08;;;;;;;4.85;3.58;;;;;;;;;;5034711;28;20022;-69
2022/01/03 04:33:34;;;;;;;3.88;3.05;;;;;;;;;;5034599;28;20018;-69
2022/01/03 04:35:59;;;;;;;4.63;3.58;;;;;;;;;;5034723;28;20391;-69
2022/01/03 04:38:26;;;;;;;4.20;3.35;;;;;;;;;;5034738;28;20446;-68
2022/01/03 04:40:52;;;;;;;5.10;3.38;;;;;;;;;;5034493;28;20037;-68
2022/01/03 04:43:17;;;;;;;3.95;3.20;;;;;;;;;;5034639;28;20024;-69
2022/01/03 04:45:43;;;;;;;3.70;3.33;;;;;;;;;;5035921;28;20021;-69
2022/01/03 04:48:08;;;;;;;5.22;3.53;;;;;;;;;;5035845;28;20475;-61
2022/01/03 04:50:34;;;;;;;4.28;3.75;;;;;;;;;;5035729;28;20036;-61
2022/01/03 04:52:59;;;;;;;9.30;3.72;;;;;;;;;;5034430;28;20464;-61
2022/01/03 04:55:25;;;;;;;3.78;2.67;;;;;;;;;;5034185;28;20033;-61
2022/01/03 04:57:50;;;;;;;3.97;3.10;;;;;;;;;;5034031;28;20021;-69
2022/01/03 05:00:16;;;;;;;3.35;3.00;;;;;;;;;;5033943;28;20487;-69
2022/01/03 05:02:42;;;;;;;3.88;3.40;;;;;;;;;;5033864;28;20017;-68
2022/01/03 05:05:08;;;;;;;3.88;3.10;;;;;;;;;;5035369;28;20029;-69
2022/01/03 05:07:34;;;;;;;5.13;3.47;;;;;;;;;;5034004;28;20025;-67
2022/01/03 05:10:00;;;;;;;3.17;2.75;;;;;;;;;;5034085;28;20036;-67
2022/01/03 05:12:25;;;;;;;4.60;3.13;;;;;;;;;;5033625;28;20021;-67
2022/01/03 05:14:51;;;;;;;3.00;2.70;;;;;;;;;;5033978;28;20049;-68
2022/01/03 05:17:17;;;;;;;2.70;2.50;;;;;;;;;;5033977;28;20026;-67
2022/01/03 05:19:43;;;;;;;3.05;2.78;;;;;;;;;;5033986;28;20045;-68
2022/01/03 05:22:08;;;;;;;3.25;2.95;;;;;;;;;;5033628;28;20028;-68
2022/01/03 05:24:35;;;;;;;3.40;2.80;;;;;;;;;;5033523;28;20492;-68
2022/01/03 05:27:02;;;;;;;4.22;2.97;;;;;;;;;;5033715;28;20021;-69
2022/01/03 05:29:28;;;;;;;4.03;3.35;;;;;;;;;;5033432;28;20033;-69
2022/01/03 05:31:54;;;;;;;4.00;2.83;;;;;;;;;;5034692;28;20415;-69
2022/01/03 05:34:20;;;;;;;3.30;3.00;;;;;;;;;;5033334;28;20087;-69
2022/01/03 05:36:45;;;;;;;3.20;2.65;;;;;;;;;;5017090;28;20029;-70
2022/01/03 05:39:11;;;;;;;3.08;2.72;;;;;;;;;;5033577;28;20030;-69
2022/01/03 05:41:37;;;;;;;3.70;2.63;;;;;;;;;;5034559;28;20494;-69
2022/01/03 05:44:04;;;;;;;2.60;2.40;;;;;;;;;;5033223;28;20484;-70
2022/01/03 05:46:29;;;;;;;3.60;2.80;;;;;;;;;;5016906;28;20018;-69
2022/01/03 05:48:55;;;;;;;3.47;2.50;;;;;;;;;;5033307;28;20041;-69
2022/01/03 05:51:21;;;;;;;2.78;2.55;;;;;;;;;;5033316;28;20026;-69
2022/01/03 05:53:47;;;;;;;2.72;2.53;;;;;;;;;;5034632;28;20036;-61
2022/01/03 05:56:12;;;;;;;3.53;2.90;;;;;;;;;;5033060;28;20076;-61
2022/01/03 05:58:38;;;;;;;3.75;2.55;;;;;;;;;;5033328;28;20021;-61
2022/01/03 06:01:03;;;;;;;3.38;3.08;;;;;;;;;;5034761;28;20395;-61
2022/01/03 06:03:34;;;;;;;4.30;3.10;;;;;;;;;;5034072;28;20064;-61
2022/01/03 06:08:26;;;;;;;4.75;3.08;;;;;;;;;;5032661;28;20025;-69
2022/01/03 06:10:51;;;;;;;5.10;3.00;;;;;;;;;;5032947;28;20029;-69
2022/01/03 06:13:22;;;;;;;3.33;2.80;;;;;;;;;;5032140;28;20083;-61
2022/01/03 06:15:52;;;;;;;3.45;3.00;;;;;;;;;;5032598;28;20426;-61
2022/01/03 06:18:18;;;;;;;5.82;3.65;;;;;;;;;;5032974;28;20033;-61
2022/01/03 06:20:47;;;;;;;3.33;2.92;;;;;;;;;;5033123;28;20033;-61
2022/01/03 06:23:14;;;;;;;4.18;3.33;;;;;;;;;;5032506;28;20056;-61
2022/01/03 06:25:40;;;;;;;3.30;2.95;;;;;;;;;;5033726;28;20021;-62
2022/01/03 06:28:09;;;;;;;4.10;3.28;;;;;;;;;;5032682;28;20026;-61
2022/01/03 06:30:42;;;;;;;4.80;3.65;;;;;;;;;;5032662;28;20460;-61
2022/01/03 06:33:09;;;;;;;3.70;2.70;;;;;;;;;;5041541;28;20029;-61
2022/01/03 06:35:34;;;;;;;4.35;3.08;;;;;;;;;;5034960;28;20025;-61
2022/01/03 06:38:01;;;;;;;5.22;3.35;;;;;;;;;;5032439;28;20021;-61
2022/01/03 06:40:27;;;;;;;3.20;2.85;;;;;;;;;;5037732;28;20135;-61
2022/01/03 06:42:53;;;;;;;3.75;2.85;;;;;;;;;;5047415;28;20035;-61
2022/01/03 06:45:20;;;;;;;4.85;3.20;;;;;;;;;;5052326;28;20055;-61
2022/01/03 06:47:46;;;;;;;3.65;2.90;;;;;;;;;;5044514;28;20057;-62
2022/01/03 06:50:11;;;;;;;3.17;2.88;;;;;;;;;;5042223;28;20360;-61
2022/01/03 06:52:37;;;;;;;3.35;3.05;;;;;;;;;;5040811;28;20033;-62
2022/01/03 06:55:04;;;;;;;4.20;3.55;;;;;;;;;;5042553;28;20021;-62
2022/01/03 06:57:30;;;;;;;4.38;3.13;;;;;;;;;;5025482;28;20029;-62
2022/01/03 06:59:55;;;;;;;7.70;3.50;;;;;;;;;;5040511;28;20024;-61
2022/01/03 07:02:21;;;;;;;4.13;2.95;;;;;;;;;;5037003;28;20033;-61
2022/01/03 07:04:47;;;;;;;6.15;3.55;;;;;;;;;;5033229;28;20037;-71
2022/01/03 07:07:13;;;;;;;4.70;3.25;;;;;;;;;;5033325;28;20041;-69
2022/01/03 07:09:38;;;;;;;3.30;2.65;;;;;;;;;;5033315;28;20556;-61
2022/01/03 07:12:04;;;;;;;4.03;2.88;;;;;;;;;;5033386;28;20022;-61
2022/01/03 07:19:42;;;;;;;4.82;2.95;;;;;;;;;;5043781;28;20032;-61
2022/01/03 07:22:09;;;;;;;6.28;2.85;;;;;;;;;;5041445;28;20084;-61
2022/01/03 07:24:35;;;;;;;5.93;3.25;;;;;;;;;;5042896;28;20033;-61
2022/01/03 07:27:02;;;;;;;3.30;2.75;;;;;;;;;;5045091;28;20096;-68
2022/01/03 07:29:27;;;;;;;3.65;2.55;;;;;;;;;;5054192;28;20366;-61
2022/01/03 07:31:53;;;;;;;4.20;2.47;;;;;;;;;;5057179;28;20096;-61
2022/01/03 07:34:18;;;;;;;3.35;2.47;;;;;;;;;;5056844;28;20547;-61
2022/01/03 07:36:44;;;;;;;3.20;1.65;;;;;;;;;;5057024;28;20052;-61
2022/01/03 07:39:10;;;;;;;4.72;2.83;;;;;;;;;;5057124;28;20395;-61
2022/01/03 07:41:36;;;;;;;4.53;2.90;;;;;;;;;;5050894;28;20049;-62
2022/01/03 07:44:04;;;;;;;4.70;3.10;;;;;;;;;;5045081;28;20028;-68
2022/01/03 07:46:30;;;;;;;2.90;2.60;;;;;;;;;;5039293;28;20024;-68
2022/01/03 07:48:55;;;;;;;3.55;2.75;;;;;;;;;;5036668;28;20124;-68
2022/01/03 07:51:21;;;;;;;4.05;3.20;;;;;;;;;;5036693;28;20018;-68
2022/01/03 07:53:47;;;;;;;5.82;3.10;;;;;;;;;;5036824;28;20103;-68
2022/01/03 07:56:12;;;;;;;4.43;2.85;;;;;;;;;;5036485;28;20178;-68
2022/01/03 07:58:38;;;;;;;4.18;2.83;;;;;;;;;;5036004;28;20037;-69
2022/01/03 08:01:04;;;;;;;3.67;2.83;;;;;;;;;;5036603;28;20017;-68
2022/01/03 08:03:29;;;;;;;3.22;2.35;;;;;;;;;;5036451;28;20503;-68
2022/01/03 08:05:55;;;;;;;3.70;2.50;;;;;;;;;;5036518;28;20039;-68
2022/01/03 08:08:21;;;;;;;4.18;2.58;;;;;;;;;;5045590;28;20033;-68
2022/01/03 08:10:46;;;;;;;3.97;3.17;;;;;;;;;;5050348;28;20035;-69
2022/01/03 08:13:13;;;;;;;5.82;2.90;;;;;;;;;;5056393;28;20031;-68
2022/01/03 08:15:38;;;;;;;5.65;2.80;;;;;;;;;;5056188;28;20495;-68
2022/01/03 08:18:04;;;;;;;5.72;3.13;;;;;;;;;;5056415;28;20037;-68
2022/01/03 08:20:30;;;;;;;4.97;2.78;;;;;;;;;;5056221;28;20028;-69
2022/01/03 08:22:55;;;;;;;4.38;3.42;;;;;;;;;;5055468;28;20503;-68
2022/01/03 08:25:21;;;;;;;4.40;3.00;;;;;;;;;;5056164;28;20039;-68
2022/01/03 08:27:46;;;;;;;5.55;3.10;;;;;;;;;;5049963;28;20029;-69
2022/01/03 08:30:12;;;;;;;3.75;3.03;;;;;;;;;;5045325;28;20013;-62
2022/01/03 08:32:37;;;;;;;5.38;3.08;;;;;;;;;;5043930;28;20025;-61
2022/01/03 08:35:03;;;;;;;4.45;3.30;;;;;;;;;;5046419;28;20100;-62
2022/01/03 08:37:30;;;;;;;3.65;2.83;;;;;;;;;;5044922;28;20380;-61
2022/01/03 08:39:55;;;;;;;4.68;2.90;;;;;;;;;;5049809;28;20024;-62
2022/01/03 08:42:21;;;;;;;5.40;2.55;;;;;;;;;;5055764;28;20033;-62
2022/01/03 08:44:47;;;;;;;2.60;2.40;;;;;;;;;;5055524;28;20033;-62
2022/01/03 08:47:12;;;;;;;3.28;2.25;;;;;;;;;;5055465;28;20070;-62
2022/01/03 08:49:38;;;;;;;3.33;2.10;;;;;;;;;;5055514;28;20025;-62
2022/01/03 08:52:05;;;;;;;3.20;2.20;;;;;;;;;;5055250;28;20043;-62
2022/01/03 08:54:31;;;;;;;2.78;1.85;;;;;;;;;;5055426;28;20051;-62
2022/01/03 08:56:56;;;;;;;4.28;2.30;;;;;;;;;;5055431;28;20490;-61
2022/01/03 08:59:22;;;;;;;2.70;1.85;;;;;;;;;;5045481;28;20017;-62
2022/01/03 09:01:48;;;;;;;3.05;2.35;;;;;;;;;;5045908;28;20344;-61
2022/01/03 09:04:13;;;;;;;2.13;1.67;;;;;;;;;;5054681;28;20071;-61
2022/01/03 09:06:39;;;;;;;2.33;1.75;;;;;;;;;;5055428;28;20027;-62
2022/01/03 09:09:06;;;;;;;4.00;2.35;;;;;;;;;;5055123;28;20017;-62
2022/01/03 09:11:31;;;;;;;4.32;2.15;;;;;;;;;;5054982;28;20063;-62
2022/01/03 09:13:57;;;;;;;5.03;2.60;;;;;;;;;;5055044;28;20037;-62
2022/01/03 09:16:23;;;;;;;4.78;2.35;;;;;;;;;;5053500;28;20041;-61
2022/01/03 09:18:48;;;;;;;2.90;2.35;;;;;;;;;;5055532;28;20044;-61
2022/01/03 09:21:14;;;;;;;4.43;2.50;;;;;;;;;;5054953;28;20475;-62
2022/01/03 09:23:45;;;;;;;2.42;2.08;;;;;;;;;;5054893;28;20021;-62
2022/01/03 09:28:58;;;;;;;3.95;2.15;;;;;;;;;;5055021;28;20174;-61
2022/01/03 09:31:35;;;;;;;1.65;1.02;;;;;;;;;;5054941;28;20017;-62
2022/01/03 09:34:02;;;;;;;4.50;2.53;;;;;;;;;;5054932;28;20033;-62
2022/01/03 09:36:28;;;;;;;3.63;2.85;;;;;;;;;;5055090;28;20032;-61
2022/01/03 09:38:54;;;;;;;4.13;2.08;;;;;;;;;;5055106;28;20162;-61
2022/01/03 09:41:23;;;;;;;2.25;1.90;;;;;;;;;;5054693;28;20056;-61
2022/01/03 09:43:53;;;;;;;4.60;1.75;;;;;;;;;;5054600;28;20127;-61
2022/01/03 09:46:23;;;;;;;4.60;2.55;;;;;;;;;;5053297;28;20029;-62
2022/01/03 09:48:52;;;;;;;2.20;2.00;;;;;;;;;;5053924;28;20099;-62
2022/01/03 09:51:28;;;;;;;1.90;1.70;;;;;;;;;;5047643;28;20072;-61
2022/01/03 09:53:55;;;;;;;3.60;2.85;;;;;;;;;;5050630;28;20128;-61
2022/01/03 09:56:21;;;;;;;4.63;2.28;;;;;;;;;;5050648;28;20736;-63
2022/01/03 09:58:47;;;;;;;2.65;1.30;;;;;;;;;;5050939;28;20044;-61
2022/01/03 10:01:13;;;;;;;2.97;2.20;;;;;;;;;;5050748;28;20017;-61
2022/01/03 10:03:41;;;;;;;3.30;2.40;;;;;;;;;;5050487;28;20040;-68
2022/01/03 10:06:07;;;;;;;2.20;1.13;;;;;;;;;;5050593;28;20115;-68
2022/01/03 10:08:33;;;;;;;3.70;2.38;;;;;;;;;;5049209;28;20025;-68
2022/01/03 10:10:58;;;;;;;2.75;2.30;;;;;;;;;;5047039;28;20024;-69
2022/01/03 10:13:24;;;;;;;1.90;1.73;;;;;;;;;;5040080;28;20030;-69
2022/01/03 10:15:50;;;;;;;2.30;1.77;;;;;;;;;;5039504;28;20040;-68
2022/01/03 10:18:17;;;;;;;3.38;1.00;;;;;;;;;;5040341;28;20806;-68
2022/01/03 10:20:42;;;;;;;4.85;1.38;;;;;;;;;;5045666;28;20116;-68
2022/01/03 10:23:10;;;;;;;2.95;1.30;;;;;;;;;;5048840;28;20115;-62
2022/01/03 10:25:36;;;;;;;0.93;0.77;;;;;;;;;;5049964;28;20540;-62
2022/01/03 10:28:04;;;;;;;1.23;1.15;;;;;;;;;;5050650;28;20109;-62
2022/01/03 10:30:36;;;;;;;0.40;0.40;;;;;;;;;;5050015;28;20536;-62
2022/01/03 10:33:03;;;;;;;1.80;1.30;;;;;;;;;;5050458;28;20025;-61
2022/01/03 10:35:34;;;;;;;1.88;0.70;;;;;;;;;;5044406;28;20032;-61
2022/01/03 10:37:59;;;;;;;1.77;0.90;;;;;;;;;;5040257;28;20037;-61
2022/01/03 10:40:28;;;;;;;0.98;0.88;;;;;;;;;;5037909;28;20032;-61
2022/01/03 10:42:57;;;;;;;1.55;0.57;;;;;;;;;;5041231;28;20544;-62
2022/01/03 10:45:27;;;;;;;0.63;0.63;;;;;;;;;;5040151;28;20033;-62
2022/01/03 10:47:53;;;;;;;1.20;1.10;;;;;;;;;;5039176;28;20036;-62
2022/01/03 10:50:19;;;;;;;0.45;0.45;;;;;;;;;;5039489;28;20733;-70
2022/01/03 10:52:46;;;;;;;0.90;0.90;;;;;;;;;;5040361;28;20021;-70
2022/01/03 10:55:14;;;;;;;3.38;0.82;;;;;;;;;;5038557;28;20028;-70
2022/01/03 10:57:49;;;;;;;2.05;0.80;;;;;;;;;;5039526;28;20044;-70
2022/01/03 11:00:16;;;;;;;1.23;0.80;;;;;;;;;;5038724;28;20115;-69
2022/01/03 11:03:04;;;;;;;2.58;0.70;;;;;;;;;;5033352;28;20109;-70
2022/01/03 11:05:37;;;;;;;1.35;0.88;;;;;;;;;;5038953;28;20448;-62
2022/01/03 11:10:44;;;;;;;1.33;0.98;;;;;;;;;;5030061;28;20121;-62
2022/01/03 11:13:16;;;;;;;0.82;0.73;;;;;;;;;;5030078;28;20029;-62
2022/01/03 11:16:02;;;;;;;0.50;0.50;;;;;;;;;;5029219;28;20048;-68
2022/01/03 11:18:29;;;;;;;0.95;0.85;;;;;;;;;;5029377;28;20491;-68
2022/01/03 11:21:03;;;;;;;1.05;0.90;;;;;;;;;;5029546;28;20044;-68
2022/01/03 11:23:29;;;;;;;1.25;1.05;;;;;;;;;;5028316;28;20480;-69
2022/01/03 11:25:54;;;;;;;1.13;0.80;;;;;;;;;;5030016;28;20026;-69
2022/01/03 11:28:21;;;;;;;0.93;0.50;;;;;;;;;;5029767;28;20033;-68
2022/01/03 11:30:47;;;;;;;0.90;0.50;;;;;;;;;;5029672;28;20030;-68
2022/01/03 11:33:13;;;;;;;0.70;0.70;;;;;;;;;;5035185;28;20036;-69
2022/01/03 11:35:44;;;;;;;1.63;0.82;;;;;;;;;;5039937;28;20464;-68
2022/01/03 11:38:10;;;;;;;0.82;0.82;;;;;;;;;;5041828;28;20097;-69
2022/01/03 11:40:36;;;;;;;0.57;0.50;;;;;;;;;;5049254;28;20172;-69
2022/01/03 11:43:01;;;;;;;2.53;0.80;;;;;;;;;;5049464;28;20115;-69
2022/01/03 11:45:28;;;;;;;1.15;0.88;;;;;;;;;;5049527;28;20024;-69
2022/01/03 11:47:54;;;;;;;1.52;1.33;;;;;;;;;;5049605;28;20033;-69
2022/01/03 11:50:19;;;;;;;2.72;0.95;;;;;;;;;;5049371;28;20014;-69
2022/01/03 11:52:46;;;;;;;2.25;0.95;;;;;;;;;;5049619;28;20028;-68
2022/01/03 11:55:12;;;;;;;3.00;1.10;;;;;;;;;;5049497;28;20068;-68
2022/01/03 12:05:58;;;;;;;1.13;0.80;;;;;;;;;;5049554;28;20119;-69
2022/01/03 12:08:29;;;;;;;1.98;0.77;;;;;;;;;;5049455;28;20029;-68
2022/01/03 12:10:57;;;;;;;1.13;1.00;;;;;;;;;;5047678;28;20361;-68
2022/01/03 12:13:43;;;;;;;1.83;0.95;;;;;;;;;;5050190;28;20047;-69
2022/01/03 12:16:08;;;;;;;2.35;1.17;;;;;;;;;;5052430;28;20132;-68
2022/01/03 12:18:34;;;;;;;1.42;1.00;;;;;;;;;;5052645;28;20530;-68
2022/01/03 12:20:59;;;;;;;1.83;0.90;;;;;;;;;;5052374;28;20060;-68
2022/01/03 12:23:38;;;;;;;1.08;0.82;;;;;;;;;;5052696;28;20029;-68
2022/01/03 12:26:23;;;;;;;1.35;1.02;;;;;;;;;;5052696;28;20040;-69
2022/01/03 12:29:05;;;;;;;2.60;1.10;;;;;;;;;;5039577;28;20036;-69
2022/01/03 12:31:49;;;;;;;1.52;0.95;;;;;;;;;;5032251;28;20064;-68
2022/01/03 12:34:18;;;;;;;1.15;0.75;;;;;;;;;;5032590;28;20099;-68
2022/01/03 12:37:03;;;;;;;1.73;1.13;;;;;;;;;;5032662;28;20468;-68
2022/01/03 12:39:29;;;;;;;2.42;1.25;;;;;;;;;;5032844;28;20041;-62
2022/01/03 12:41:55;;;;;;;1.98;1.52;;;;;;;;;;5032489;28;20090;-62
2022/01/03 12:44:39;;;;;;;1.02;0.90;;;;;;;;;;5032433;28;20643;-62
2022/01/03 12:47:15;;;;;;;1.08;0.52;;;;;;;;;;5032272;28;20034;-62
2022/01/03 12:49:40;;;;;;;1.90;1.17;;;;;;;;;;5032378;28;20033;-62
2022/01/03 12:52:16;;;;;;;2.03;1.25;;;;;;;;;;5032232;28;20087;-62
2022/01/03 12:54:42;;;;;;;2.35;1.35;;;;;;;;;;5032371;28;20068;-62
2022/01/03 12:57:12;;;;;;;3.45;1.60;;;;;;;;;;5032341;28;20067;-62
2022/01/03 12:59:37;;;;;;;1.43;1.20;;;;;;;;;;5034684;28;20391;-62
2022/01/03 13:02:21;;;;;;;1.48;1.00;;;;;;;;;;5031896;28;20278;-62
2022/01/03 13:04:47;;;;;;;2.92;1.35;;;;;;;;;;5031817;28;20052;-62
2022/01/03 13:07:12;;;;;;;1.48;1.13;;;;;;;;;;5031934;28;20116;-62
2022/01/03 13:09:38;;;;;;;1.50;1.40;;;;;;;;;;5032265;28;20041;-62
2022/01/03 13:12:05;;;;;;;2.20;0.95;;;;;;;;;;5031968;28;20013;-62
2022/01/03 13:14:31;;;;;;;2.78;1.45;;;;;;;;;;5032280;28;20040;-62
2022/01/03 13:16:58;;;;;;;1.08;0.98;;;;;;;;;;5031763;28;20049;-62
2022/01/03 13:19:43;;;;;;;2.25;1.33;;;;;;;;;;5032128;28;20037;-62
2022/01/03 13:22:10;;;;;;;4.15;2.20;;;;;;;;;;5032047;28;20495;-62
2022/01/03 13:24:36;;;;;;;3.45;1.50;;;;;;;;;;5031591;28;20033;-62
2022/01/03 13:27:01;;;;;;;2.15;1.30;;;;;;;;;;5029699;28;20025;-62
2022/01/03 13:29:28;;;;;;;1.75;1.50;;;;;;;;;;5031748;28;20027;-62
2022/01/03 13:31:54;;;;;;;2.95;1.75;;;;;;;;;;5031601;28;20033;-62
2022/01/03 13:34:24;;;;;;;3.75;1.90;;;;;;;;;;5031780;28;20384;-62
2022/01/03 13:36:49;;;;;;;4.00;1.50;;;;;;;;;;5031710;28;20037;-62
2022/01/03 13:39:21;;;;;;;1.80;1.50;;;;;;;;;;5031790;28;20456;-62
2022/01/03 13:42:01;;;;;;;2.47;1.10;;;;;;;;;;5031602;28;20048;-62
2022/01/03 13:49:55;;;;;;;3.42;2.08;;;;;;;;;;5031454;28;20468;-62
2022/01/03 13:52:25;;;;;;;2.88;1.90;;;;;;;;;;5031100;28;20022;-62
2022/01/03 13:54:52;;;;;;;;;;;;;;;;;;5031748;28;20095;-62
2022/01/03 13:57:17;;;;;;;2.47;1.42;;;;;;;;;;5031018;28;19912;-62
2022/01/03 13:59:43;;;;;;;2.90;2.35;;;;;;;;;;5031303;28;20037;-62
2022/01/03 14:02:11;;;;;;;7.13;2.72;;;;;;;;;;5030970;28;20089;-62
2022/01/03 14:04:36;;;;;;;3.90;1.80;;;;;;;;;;5031123;28;20052;-62
2022/01/03 14:07:09;;;;;;;3.10;1.98;;;;;;;;;;5030973;28;20013;-62
2022/01/03 14:09:39;;;;;;;3.25;1.88;;;;;;;;;;5031020;28;20035;-62
2022/01/03 14:12:09;;;;;;;6.60;3.60;;;;;;;;;;5031164;28;20056;-62
2022/01/03 14:14:36;;;;;;;3.55;2.40;;;;;;;;;;5030880;28;20033;-62
2022/01/03 14:17:04;;;;;;;2.65;2.03;;;;;;;;;;5030851;28;20056;-62
2022/01/03 14:19:30;;;;;;;3.67;2.65;;;;;;;;;;5030899;28;20041;-62
2022/01/03 14:21:55;;;;;;;11.13;5.20;;;;;;;;;;5030746;28;20059;-62
2022/01/03 14:24:23;;;;;;;9.20;4.30;;;;;;;;;;5030730;28;20041;-62
2022/01/03 14:26:58;;;;;;;10.02;4.47;;;;;;;;;;5030822;28;20035;-62
2022/01/03 14:29:32;;;;;;;2.55;1.90;;;;;;;;;;5030593;28;20045;-62
2022/01/03 14:31:58;;;;;;;4.53;2.58;;;;;;;;;;5030603;28;20029;-61
2022/01/03 14:34:27;;;;;;;4.63;2.58;;;;;;;;;;5030674;28;20029;-61
2022/01/03 14:36:53;;;;;;;8.27;3.35;;;;;;;;;;5030241;28;20041;-61
2022/01/03 14:39:19;;;;;;;6.43;3.15;;;;;;;;;;5030605;28;20030;-62
2022/01/03 14:42:05;;;;;;;5.82;2.80;;;;;;;;;;5030217;28;20044;-62
2022/01/03 14:44:31;;;;;;;4.03;2.58;;;;;;;;;;5030287;28;20498;-61
2022/01/03 14:47:05;;;;;;;117.03;59.05;;;;;;;;;;5030718;28;20025;-61
2022/01/03 14:49:30;;;;;;;36.80;20.30;;;;;;;;;;5030393;28;20048;-61
2022/01/03 14:51:56;;;;;;;15.20;9.65;;;;;;;;;;5030408;28;20044;-61
2022/01/03 14:54:23;;;;;;;26.80;15.18;;;;;;;;;;5030554;28;20125;-62
2022/01/03 14:56:52;;;;;;;18.05;11.23;;;;;;;;;;5030195;28;20112;-62
2022/01/03 14:59:17;;;;;;;5.63;4.05;;;;;;;;;;5030158;28;20041;-61
2022/01/03 15:01:45;;;;;;;3.05;2.65;;;;;;;;;;5030113;28;20036;-61
2022/01/03 15:04:14;;;;;;;8.88;5.93;;;;;;;;;;5030265;28;20692;-62
2022/01/03 15:06:40;;;;;;;6.43;3.30;;;;;;;;;;5030166;28;20074;-62
2022/01/03 15:09:06;;;;;;;5.63;4.00;;;;;;;;;;5035189;28;20088;-62
2022/01/03 15:11:31;;;;;;;3.53;2.13;;;;;;;;;;5047086;28;20110;-62
2022/01/03 15:13:57;;;;;;;3.42;2.33;;;;;;;;;;5049794;28;20640;-62